Time;durP1;ratioP1;P1;durP2;ratioP2;P2;SDS_P1;SDS_P2;PMS_P1;PMS_P2;Temp;Humidity;BMP_temperature;BMP_pressure;BME280_temperature;BME280_humidity;BME280_pressure;Samples;Min_cycle;Max_cycle;Signal;HPM_P1;HPM_P2
2021/11/18 00:02:53;;;;;;;1.72;1.62;;;;;;;18.83;53.65;101593.02;;;;-50
2021/11/18 00:05:53;;;;;;;1.63;1.53;;;;;;;18.82;53.63;101599.71;;;;-50
2021/11/18 00:08:53;;;;;;;1.81;1.52;;;;;;;18.81;53.62;101604.81;;;;-50
2021/11/18 00:11:55;;;;;;;1.69;1.57;;;;;;;18.80;53.71;101594.16;;;;-54
2021/11/18 00:14:53;;;;;;;1.72;1.60;;;;;;;18.78;53.68;101593.14;;;;-55
2021/11/18 00:17:53;;;;;;;1.70;1.60;;;;;;;18.78;53.72;101598.83;;;;-54
2021/11/18 00:20:53;;;;;;;1.69;1.59;;;;;;;18.76;53.77;101597.52;;;;-50
2021/11/18 00:23:53;;;;;;;1.60;1.50;;;;;;;18.75;53.76;101594.14;;;;-54
2021/11/18 00:26:54;;;;;;;1.60;1.50;;;;;;;18.73;53.73;101593.27;;;;-50
2021/11/18 00:29:53;;;;;;;1.79;1.64;;;;;;;18.72;53.75;101585.47;;;;-50
2021/11/18 00:32:53;;;;;;;1.59;1.49;;;;;;;18.71;53.78;101583.72;;;;-54
2021/11/18 00:35:53;;;;;;;1.60;1.50;;;;;;;18.70;53.83;101581.59;;;;-50
2021/11/18 00:38:53;;;;;;;1.57;1.47;;;;;;;18.69;53.80;101574.65;;;;-55
2021/11/18 00:41:53;;;;;;;1.60;1.50;;;;;;;18.69;53.81;101578.54;;;;-50
2021/11/18 00:44:57;;;;;;;1.53;1.43;;;;;;;18.67;53.83;101572.48;;;;-54
2021/11/18 00:47:53;;;;;;;1.68;1.58;;;;;;;18.66;53.80;101567.43;;;;-54
2021/11/18 00:50:53;;;;;;;1.67;1.57;;;;;;;18.66;53.83;101565.16;;;;-54
2021/11/18 00:53:53;;;;;;;1.67;1.57;;;;;;;18.65;53.83;101575.27;;;;-54
2021/11/18 00:56:53;;;;;;;1.66;1.56;;;;;;;18.64;53.87;101581.02;;;;-50
2021/11/18 00:59:53;;;;;;;1.60;1.50;;;;;;;18.62;53.85;101592.33;;;;-50
2021/11/18 01:02:54;;;;;;;1.61;1.51;;;;;;;18.62;53.95;101595.41;;;;-55
2021/11/18 01:05:53;;;;;;;1.62;1.52;;;;;;;18.60;53.88;101601.12;;;;-50
2021/11/18 01:08:53;;;;;;;1.71;1.60;;;;;;;18.59;53.93;101612.80;;;;-55
2021/11/18 01:11:53;;;;;;;1.50;1.40;;;;;;;18.59;53.92;101625.02;;;;-50
2021/11/18 01:14:53;;;;;;;1.60;1.50;;;;;;;18.58;53.93;101621.60;;;;-50
2021/11/18 01:17:53;;;;;;;1.53;1.43;;;;;;;18.57;53.93;101618.06;;;;-50
2021/11/18 01:20:53;;;;;;;1.70;1.60;;;;;;;18.56;53.93;101619.27;;;;-54
2021/11/18 01:23:53;;;;;;;1.80;1.63;;;;;;;18.55;53.93;101619.06;;;;-54
2021/11/18 01:26:53;;;;;;;1.70;1.60;;;;;;;18.54;53.97;101618.41;;;;-54
2021/11/18 01:29:53;;;;;;;1.69;1.59;;;;;;;18.53;53.95;101616.97;;;;-54
2021/11/18 01:32:53;;;;;;;1.67;1.57;;;;;;;18.53;53.98;101619.16;;;;-55
2021/11/18 01:35:53;;;;;;;1.69;1.59;;;;;;;18.51;53.97;101615.00;;;;-50
2021/11/18 01:38:53;;;;;;;1.79;1.69;;;;;;;18.51;54.07;101610.73;;;;-50
2021/11/18 01:41:55;;;;;;;1.69;1.59;;;;;;;18.50;54.04;101616.41;;;;-54
2021/11/18 01:44:53;;;;;;;1.55;1.45;;;;;;;18.49;54.01;101615.42;;;;-54
2021/11/18 01:47:53;;;;;;;1.61;1.51;;;;;;;18.48;54.03;101619.69;;;;-54
2021/11/18 01:50:53;;;;;;;1.71;1.61;;;;;;;18.48;54.03;101625.03;;;;-54
2021/11/18 01:53:53;;;;;;;1.67;1.57;;;;;;;18.47;53.99;101622.39;;;;-50
2021/11/18 01:56:53;;;;;;;1.69;1.59;;;;;;;18.46;54.00;101627.66;;;;-50
2021/11/18 01:59:53;;;;;;;1.52;1.42;;;;;;;18.45;54.04;101622.45;;;;-54
2021/11/18 02:02:53;;;;;;;1.67;1.57;;;;;;;18.45;54.02;101624.28;;;;-50
2021/11/18 02:05:53;;;;;;;1.80;1.57;;;;;;;18.43;54.07;101631.97;;;;-54
2021/11/18 02:08:53;;;;;;;1.70;1.60;;;;;;;18.42;54.09;101641.25;;;;-54
2021/11/18 02:11:53;;;;;;;1.60;1.49;;;;;;;18.42;54.08;101643.61;;;;-54
2021/11/18 02:14:53;;;;;;;1.70;1.60;;;;;;;18.41;54.13;101648.88;;;;-50
2021/11/18 02:17:53;;;;;;;1.60;1.50;;;;;;;18.41;54.12;101648.88;;;;-54
2021/11/18 02:20:53;;;;;;;1.62;1.52;;;;;;;18.40;54.11;101644.37;;;;-50
2021/11/18 02:23:53;;;;;;;1.60;1.50;;;;;;;18.40;54.09;101646.70;;;;-50
2021/11/18 02:26:53;;;;;;;1.85;1.70;;;;;;;18.39;54.05;101647.92;;;;-55
2021/11/18 02:29:53;;;;;;;1.73;1.60;;;;;;;18.38;54.15;101652.75;;;;-54
2021/11/18 02:32:53;;;;;;;1.72;1.62;;;;;;;18.37;54.10;101652.00;;;;-54
2021/11/18 02:35:53;;;;;;;1.60;1.50;;;;;;;18.37;54.14;101649.48;;;;-50
2021/11/18 02:38:53;;;;;;;1.61;1.51;;;;;;;18.36;54.15;101647.00;;;;-50
2021/11/18 02:41:53;;;;;;;1.59;1.49;;;;;;;18.36;54.17;101647.64;;;;-50
2021/11/18 02:44:53;;;;;;;1.69;1.59;;;;;;;18.35;54.12;101646.33;;;;-50
2021/11/18 02:47:54;;;;;;;1.47;1.37;;;;;;;18.33;54.16;101640.68;;;;-55
2021/11/18 02:50:53;;;;;;;1.60;1.50;;;;;;;18.33;54.15;101638.56;;;;-55
2021/11/18 02:53:53;;;;;;;1.70;1.58;;;;;;;18.31;54.18;101647.44;;;;-54
2021/11/18 02:56:55;;;;;;;1.73;1.63;;;;;;;18.32;54.21;101656.77;;;;-55
2021/11/18 02:59:53;;;;;;;1.65;1.55;;;;;;;18.31;54.18;101656.04;;;;-54
2021/11/18 03:02:53;;;;;;;1.65;1.55;;;;;;;18.31;54.18;101651.23;;;;-50
2021/11/18 03:05:53;;;;;;;1.71;1.61;;;;;;;18.30;54.18;101647.45;;;;-50
2021/11/18 03:08:53;;;;;;;1.65;1.55;;;;;;;18.29;54.23;101667.98;;;;-50
2021/11/18 03:11:53;;;;;;;1.98;1.60;;;;;;;18.29;54.20;101664.17;;;;-55
2021/11/18 03:14:53;;;;;;;1.63;1.53;;;;;;;18.28;54.21;101649.19;;;;-50
2021/11/18 03:17:53;;;;;;;1.59;1.49;;;;;;;18.27;54.17;101646.66;;;;-55
2021/11/18 03:20:53;;;;;;;1.77;1.67;;;;;;;18.26;54.27;101644.46;;;;-50
2021/11/18 03:23:53;;;;;;;1.68;1.58;;;;;;;18.25;54.28;101656.75;;;;-54
2021/11/18 03:26:53;;;;;;;1.73;1.53;;;;;;;18.25;54.21;101667.53;;;;-54
2021/11/18 03:29:53;;;;;;;1.60;1.50;;;;;;;18.25;54.24;101675.65;;;;-54
2021/11/18 03:32:53;;;;;;;1.83;1.50;;;;;;;18.25;54.25;101681.65;;;;-50
2021/11/18 03:35:53;;;;;;;1.79;1.63;;;;;;;18.24;54.23;101684.20;;;;-50
2021/11/18 03:38:53;;;;;;;1.77;1.66;;;;;;;18.23;54.25;101673.89;;;;-50
2021/11/18 03:41:53;;;;;;;1.84;1.71;;;;;;;18.23;54.27;101677.77;;;;-54
2021/11/18 03:44:53;;;;;;;1.81;1.70;;;;;;;18.23;54.22;101681.18;;;;-50
2021/11/18 03:47:53;;;;;;;1.82;1.67;;;;;;;18.21;54.20;101682.17;;;;-50
2021/11/18 03:50:53;;;;;;;1.65;1.51;;;;;;;18.20;54.27;101680.05;;;;-51
2021/11/18 03:53:53;;;;;;;1.69;1.59;;;;;;;18.20;54.28;101687.52;;;;-50
2021/11/18 03:56:53;;;;;;;2.31;1.60;;;;;;;18.20;54.25;101698.27;;;;-50
2021/11/18 03:59:53;;;;;;;1.68;1.50;;;;;;;18.20;54.24;101700.63;;;;-51
2021/11/18 04:02:53;;;;;;;1.79;1.69;;;;;;;18.18;54.29;101703.53;;;;-50
2021/11/18 04:05:53;;;;;;;1.70;1.60;;;;;;;18.18;54.28;101702.62;;;;-50
2021/11/18 04:08:53;;;;;;;1.72;1.62;;;;;;;18.18;54.29;101704.33;;;;-50
2021/11/18 04:11:53;;;;;;;1.80;1.70;;;;;;;18.17;54.26;101696.02;;;;-55
2021/11/18 04:14:53;;;;;;;1.64;1.54;;;;;;;18.17;54.27;101699.48;;;;-55
2021/11/18 04:17:53;;;;;;;1.63;1.53;;;;;;;18.16;54.28;101704.59;;;;-55
2021/11/18 04:20:53;;;;;;;1.93;1.53;;;;;;;18.16;54.30;101707.99;;;;-54
2021/11/18 04:23:53;;;;;;;1.60;1.50;;;;;;;18.15;54.28;101701.37;;;;-50
2021/11/18 04:26:53;;;;;;;1.60;1.50;;;;;;;18.15;54.29;101693.35;;;;-50
2021/11/18 04:29:53;;;;;;;1.69;1.59;;;;;;;18.15;54.24;101695.78;;;;-50
2021/11/18 04:32:53;;;;;;;1.73;1.63;;;;;;;18.14;54.24;101699.02;;;;-50
2021/11/18 04:35:53;;;;;;;1.72;1.62;;;;;;;18.13;54.27;101710.65;;;;-54
2021/11/18 04:38:53;;;;;;;1.99;1.73;;;;;;;18.13;54.25;101715.27;;;;-50
2021/11/18 04:41:54;;;;;;;1.91;1.70;;;;;;;18.12;54.28;101717.03;;;;-50
2021/11/18 04:44:53;;;;;;;1.95;1.70;;;;;;;18.12;54.28;101717.28;;;;-54
2021/11/18 04:47:53;;;;;;;1.95;1.71;;;;;;;18.11;54.28;101712.86;;;;-50
2021/11/18 04:50:53;;;;;;;2.32;1.55;;;;;;;18.11;54.30;101720.88;;;;-50
2021/11/18 04:53:53;;;;;;;1.97;1.74;;;;;;;18.10;54.30;101720.45;;;;-50
2021/11/18 04:56:53;;;;;;;1.70;1.60;;;;;;;18.09;54.32;101723.82;;;;-50
2021/11/18 04:59:53;;;;;;;2.01;1.80;;;;;;;18.08;54.30;101726.23;;;;-50
2021/11/18 05:02:53;;;;;;;1.85;1.67;;;;;;;18.08;54.32;101731.42;;;;-54
2021/11/18 05:05:53;;;;;;;1.97;1.77;;;;;;;18.07;54.29;101728.58;;;;-50
2021/11/18 05:08:53;;;;;;;1.84;1.71;;;;;;;18.07;54.36;101726.67;;;;-54
2021/11/18 05:11:53;;;;;;;2.06;1.89;;;;;;;18.06;54.32;101730.47;;;;-54
2021/11/18 05:14:53;;;;;;;2.19;1.79;;;;;;;18.06;54.32;101740.12;;;;-54
2021/11/18 05:17:53;;;;;;;1.99;1.79;;;;;;;18.05;54.34;101741.21;;;;-54
2021/11/18 05:20:53;;;;;;;2.01;1.81;;;;;;;18.05;54.33;101743.47;;;;-50
2021/11/18 05:23:53;;;;;;;2.11;1.90;;;;;;;18.04;54.31;101740.70;;;;-55
2021/11/18 05:26:53;;;;;;;2.10;1.90;;;;;;;18.03;54.34;101737.09;;;;-50
2021/11/18 05:29:53;;;;;;;2.15;1.80;;;;;;;18.03;54.35;101735.87;;;;-50
2021/11/18 05:32:53;;;;;;;2.26;1.78;;;;;;;18.03;54.27;101735.58;;;;-55
2021/11/18 05:35:53;;;;;;;1.91;1.71;;;;;;;18.03;54.33;101733.59;;;;-54
2021/11/18 05:38:53;;;;;;;2.10;1.90;;;;;;;18.03;54.33;101729.61;;;;-50
2021/11/18 05:41:53;;;;;;;2.08;1.84;;;;;;;18.03;54.31;101730.35;;;;-50
2021/11/18 05:44:54;;;;;;;2.17;1.96;;;;;;;18.04;54.34;101735.11;;;;-50
2021/11/18 05:47:53;;;;;;;2.39;1.83;;;;;;;18.04;54.39;101732.75;;;;-50
2021/11/18 05:50:53;;;;;;;2.06;1.86;;;;;;;18.06;54.34;101737.03;;;;-53
2021/11/18 05:53:53;;;;;;;1.80;1.70;;;;;;;18.08;54.35;101739.05;;;;-50
2021/11/18 05:56:53;;;;;;;1.92;1.80;;;;;;;18.11;54.37;101743.03;;;;-50
2021/11/18 05:59:53;;;;;;;2.13;1.93;;;;;;;18.13;54.45;101740.82;;;;-54
2021/11/18 06:02:53;;;;;;;2.06;1.79;;;;;;;18.14;54.42;101743.47;;;;-54
2021/11/18 06:05:53;;;;;;;1.77;1.67;;;;;;;18.17;54.51;101753.86;;;;-54
2021/11/18 06:08:53;;;;;;;1.98;1.77;;;;;;;18.20;54.48;101759.45;;;;-54
2021/11/18 06:11:53;;;;;;;2.09;1.89;;;;;;;18.23;54.43;101758.03;;;;-50
2021/11/18 06:14:53;;;;;;;1.79;1.63;;;;;;;18.26;54.48;101761.23;;;;-54
2021/11/18 06:17:53;;;;;;;2.03;1.81;;;;;;;18.28;54.39;101770.14;;;;-54
2021/11/18 06:20:53;;;;;;;1.79;1.69;;;;;;;18.31;54.46;101769.57;;;;-50
2021/11/18 06:23:53;;;;;;;1.99;1.68;;;;;;;18.34;54.45;101767.22;;;;-54
2021/11/18 06:26:53;;;;;;;1.83;1.65;;;;;;;18.36;54.47;101766.91;;;;-54
2021/11/18 06:29:53;;;;;;;1.85;1.71;;;;;;;18.38;54.49;101768.73;;;;-54
2021/11/18 06:32:53;;;;;;;1.79;1.64;;;;;;;18.40;54.44;101775.13;;;;-55
2021/11/18 06:35:53;;;;;;;1.90;1.69;;;;;;;18.41;54.47;101774.77;;;;-50
2021/11/18 06:38:53;;;;;;;1.80;1.70;;;;;;;18.43;54.44;101768.58;;;;-50
2021/11/18 06:41:53;;;;;;;1.80;1.68;;;;;;;18.44;54.41;101772.00;;;;-50
2021/11/18 06:44:53;;;;;;;2.01;1.81;;;;;;;18.45;54.50;101772.37;;;;-54
2021/11/18 06:47:53;;;;;;;1.80;1.69;;;;;;;18.46;54.49;101775.16;;;;-54
2021/11/18 06:50:53;;;;;;;2.10;1.71;;;;;;;18.46;54.43;101780.03;;;;-54
2021/11/18 06:53:53;;;;;;;1.81;1.65;;;;;;;18.47;54.41;101786.48;;;;-54
2021/11/18 06:56:53;;;;;;;1.91;1.70;;;;;;;18.47;54.44;101786.00;;;;-54
2021/11/18 06:59:54;;;;;;;2.00;1.72;;;;;;;18.48;54.41;101793.39;;;;-54
2021/11/18 07:02:53;;;;;;;1.81;1.71;;;;;;;18.48;54.40;101799.09;;;;-50
2021/11/18 07:05:53;;;;;;;1.76;1.65;;;;;;;18.48;54.40;101800.06;;;;-54
2021/11/18 07:08:53;;;;;;;1.72;1.61;;;;;;;18.49;54.42;101805.79;;;;-55
2021/11/18 07:11:53;;;;;;;1.76;1.66;;;;;;;18.49;54.37;101811.59;;;;-53
2021/11/18 07:14:53;;;;;;;1.81;1.64;;;;;;;18.49;54.36;101824.14;;;;-50
2021/11/18 07:17:53;;;;;;;1.71;1.61;;;;;;;18.50;54.31;101820.33;;;;-54
2021/11/18 07:20:53;;;;;;;1.87;1.73;;;;;;;18.49;54.34;101824.95;;;;-50
2021/11/18 07:23:53;;;;;;;1.67;1.57;;;;;;;18.48;54.36;101829.53;;;;-50
2021/11/18 07:26:53;;;;;;;1.99;1.79;;;;;;;18.49;54.35;101835.62;;;;-53
2021/11/18 07:29:53;;;;;;;1.97;1.78;;;;;;;18.49;54.33;101843.74;;;;-53
2021/11/18 07:32:53;;;;;;;1.99;1.80;;;;;;;18.49;54.34;101843.21;;;;-50
2021/11/18 07:35:54;;;;;;;1.98;1.78;;;;;;;18.48;54.34;101840.89;;;;-50
2021/11/18 07:38:53;;;;;;;1.74;1.64;;;;;;;18.48;54.29;101845.11;;;;-53
2021/11/18 07:41:53;;;;;;;1.86;1.71;;;;;;;18.48;54.34;101849.09;;;;-54
2021/11/18 07:44:53;;;;;;;1.99;1.73;;;;;;;18.48;54.30;101849.73;;;;-50
2021/11/18 07:47:53;;;;;;;1.71;1.61;;;;;;;18.47;54.29;101847.37;;;;-51
2021/11/18 07:50:53;;;;;;;2.02;1.82;;;;;;;18.47;54.33;101849.64;;;;-50
2021/11/18 07:53:53;;;;;;;1.99;1.78;;;;;;;18.47;54.36;101851.42;;;;-50
2021/11/18 07:56:53;;;;;;;1.81;1.70;;;;;;;18.46;54.37;101853.08;;;;-50
2021/11/18 07:59:53;;;;;;;2.05;1.82;;;;;;;18.46;54.36;101853.73;;;;-54
2021/11/18 08:02:53;;;;;;;1.93;1.71;;;;;;;18.45;54.37;101853.16;;;;-54
2021/11/18 08:05:53;;;;;;;1.79;1.69;;;;;;;18.45;54.28;101853.23;;;;-50
2021/11/18 08:08:55;;;;;;;2.01;1.76;;;;;;;18.44;54.30;101861.06;;;;-50
2021/11/18 08:11:53;;;;;;;2.06;1.86;;;;;;;18.44;54.30;101873.64;;;;-54
2021/11/18 08:14:53;;;;;;;1.93;1.71;;;;;;;18.43;54.32;101876.86;;;;-50
2021/11/18 08:17:53;;;;;;;1.77;1.67;;;;;;;18.43;54.34;101878.48;;;;-53
2021/11/18 08:20:53;;;;;;;2.08;1.88;;;;;;;18.43;54.31;101876.70;;;;-54
2021/11/18 08:23:53;;;;;;;1.99;1.81;;;;;;;18.42;54.30;101878.67;;;;-50
2021/11/18 08:26:53;;;;;;;2.19;1.99;;;;;;;18.42;54.25;101882.09;;;;-53
2021/11/18 08:29:53;;;;;;;1.90;1.79;;;;;;;18.42;54.29;101881.34;;;;-53
2021/11/18 08:32:53;;;;;;;1.94;1.78;;;;;;;18.42;54.24;101878.91;;;;-50
2021/11/18 08:35:53;;;;;;;2.00;1.71;;;;;;;18.41;54.23;101879.19;;;;-50
2021/11/18 08:38:55;;;;;;;1.85;1.73;;;;;;;18.40;54.25;101879.10;;;;-50
2021/11/18 08:41:53;;;;;;;2.03;1.84;;;;;;;18.40;54.25;101865.05;;;;-50
2021/11/18 08:44:53;;;;;;;1.98;1.78;;;;;;;18.40;54.18;101862.77;;;;-54
2021/11/18 08:47:53;;;;;;;1.93;1.79;;;;;;;18.39;54.24;101870.80;;;;-54
2021/11/18 08:50:53;;;;;;;1.87;1.71;;;;;;;18.39;54.25;101876.64;;;;-54
2021/11/18 08:53:53;;;;;;;1.99;1.78;;;;;;;18.39;54.24;101875.59;;;;-54
2021/11/18 08:56:53;;;;;;;1.95;1.75;;;;;;;18.39;54.24;101875.27;;;;-50
2021/11/18 08:59:53;;;;;;;2.21;1.79;;;;;;;18.38;54.25;101876.59;;;;-50
2021/11/18 09:02:53;;;;;;;2.14;1.94;;;;;;;18.38;54.23;101882.92;;;;-50
2021/11/18 09:05:53;;;;;;;2.86;1.79;;;;;;;18.38;54.25;101890.23;;;;-54
2021/11/18 09:08:53;;;;;;;2.11;1.84;;;;;;;18.38;54.25;101890.89;;;;-54
2021/11/18 09:11:53;;;;;;;1.91;1.76;;;;;;;18.38;54.25;101888.69;;;;-50
2021/11/18 09:14:53;;;;;;;2.01;1.85;;;;;;;18.38;54.26;101888.12;;;;-50
2021/11/18 09:17:54;;;;;;;2.14;1.94;;;;;;;18.37;54.27;101890.86;;;;-54
2021/11/18 09:20:53;;;;;;;1.81;1.71;;;;;;;18.38;54.23;101895.74;;;;-54
2021/11/18 09:23:54;;;;;;;1.70;1.60;;;;;;;18.37;54.27;101901.34;;;;-50
2021/11/18 09:26:53;;;;;;;1.81;1.63;;;;;;;18.38;54.28;101908.58;;;;-54
2021/11/18 09:29:54;;;;;;;1.80;1.70;;;;;;;18.38;54.31;101915.80;;;;-53
2021/11/18 09:32:53;;;;;;;1.79;1.69;;;;;;;18.38;54.25;101918.41;;;;-54
2021/11/18 09:35:53;;;;;;;1.99;1.79;;;;;;;18.37;54.28;101923.42;;;;-50
2021/11/18 09:38:53;;;;;;;1.70;1.60;;;;;;;18.37;54.28;101918.63;;;;-50
2021/11/18 09:41:54;;;;;;;1.80;1.70;;;;;;;18.37;54.28;101920.98;;;;-50
2021/11/18 09:44:53;;;;;;;1.80;1.70;;;;;;;18.38;54.29;101917.91;;;;-53
2021/11/18 09:47:54;;;;;;;1.77;1.67;;;;;;;18.37;54.26;101910.11;;;;-56
2021/11/18 09:51:53;;;;;;;6.25;3.39;;;;;;;18.32;53.61;101903.12;;;;-51
2021/11/18 09:54:53;;;;;;;7.12;3.67;;;;;;;18.34;54.02;101903.89;;;;-51
2021/11/18 09:57:53;;;;;;;4.57;2.71;;;;;;;18.37;54.34;101910.34;;;;-51
2021/11/18 10:00:53;;;;;;;4.57;2.58;;;;;;;18.39;54.38;101913.25;;;;-51
2021/11/18 10:03:53;;;;;;;3.43;2.31;;;;;;;18.41;54.49;101917.13;;;;-51
2021/11/18 10:06:53;;;;;;;4.66;2.27;;;;;;;18.42;54.42;101908.78;;;;-50
2021/11/18 10:09:53;;;;;;;2.67;2.18;;;;;;;18.42;54.40;101901.00;;;;-54
2021/11/18 10:12:53;;;;;;;2.61;2.07;;;;;;;18.44;54.83;101901.08;;;;-51
2021/11/18 10:15:53;;;;;;;3.59;2.29;;;;;;;18.46;54.77;101899.67;;;;-50
2021/11/18 10:18:53;;;;;;;4.44;2.07;;;;;;;18.48;54.72;101896.98;;;;-51
2021/11/18 10:21:53;;;;;;;3.07;2.17;;;;;;;18.48;54.65;101891.72;;;;-50
2021/11/18 10:24:53;;;;;;;2.26;2.01;;;;;;;18.50;54.59;101889.66;;;;-50
2021/11/18 10:27:53;;;;;;;5.12;2.24;;;;;;;18.51;54.75;101892.96;;;;-46
2021/11/18 10:30:54;;;;;;;3.23;2.10;;;;;;;18.50;54.62;101899.24;;;;-51
2021/11/18 10:33:53;;;;;;;2.88;1.90;;;;;;;18.51;54.69;101898.81;;;;-47
2021/11/18 10:36:53;;;;;;;3.77;2.12;;;;;;;18.52;54.67;101895.24;;;;-48
2021/11/18 10:39:53;;;;;;;3.47;2.05;;;;;;;18.51;54.74;101900.03;;;;-48
2021/11/18 10:42:53;;;;;;;2.21;1.99;;;;;;;18.52;54.78;101903.13;;;;-46
2021/11/18 10:45:55;;;;;;;3.39;2.07;;;;;;;18.53;54.71;101903.79;;;;-47
2021/11/18 10:48:53;;;;;;;5.89;2.30;;;;;;;18.54;54.77;101900.84;;;;-46
2021/11/18 10:51:54;;;;;;;5.40;2.11;;;;;;;18.54;54.81;101885.99;;;;-52
2021/11/18 10:54:53;;;;;;;3.21;1.98;;;;;;;18.56;54.70;101877.93;;;;-50
2021/11/18 10:57:53;;;;;;;2.72;1.84;;;;;;;18.57;54.75;101880.83;;;;-46
2021/11/18 11:00:55;;;;;;;3.33;2.10;;;;;;;18.58;54.79;101877.69;;;;-46
2021/11/18 11:03:53;;;;;;;3.72;2.09;;;;;;;18.58;54.81;101873.14;;;;-46
2021/11/18 11:06:53;;;;;;;2.36;2.05;;;;;;;18.58;54.76;101876.77;;;;-45
2021/11/18 11:09:53;;;;;;;2.14;1.94;;;;;;;18.59;54.73;101887.92;;;;-50
2021/11/18 11:12:54;;;;;;;3.44;2.33;;;;;;;18.59;54.80;101878.78;;;;-47
2021/11/18 11:15:53;;;;;;;2.25;1.94;;;;;;;18.59;54.81;101877.48;;;;-45
2021/11/18 11:18:53;;;;;;;7.18;2.40;;;;;;;18.60;54.85;101875.55;;;;-48
2021/11/18 11:21:53;;;;;;;6.01;2.62;;;;;;;18.58;54.43;101873.13;;;;-51
2021/11/18 11:24:53;;;;;;;6.13;2.15;;;;;;;18.58;54.50;101873.20;;;;-52
2021/11/18 11:27:53;;;;;;;3.06;2.18;;;;;;;18.57;54.64;101869.58;;;;-45
2021/11/18 11:30:53;;;;;;;5.54;2.39;;;;;;;18.57;54.68;101874.09;;;;-51
2021/11/18 11:33:53;;;;;;;5.34;2.12;;;;;;;18.59;54.64;101877.20;;;;-51
2021/11/18 11:36:53;;;;;;;3.39;2.24;;;;;;;18.61;54.68;101878.24;;;;-50
2021/11/18 11:39:53;;;;;;;3.56;2.39;;;;;;;18.65;54.85;101884.55;;;;-52
2021/11/18 11:42:53;;;;;;;3.11;2.21;;;;;;;18.69;54.89;101882.65;;;;-49
2021/11/18 11:45:53;;;;;;;5.16;2.09;;;;;;;18.75;54.95;101886.33;;;;-49
2021/11/18 11:48:53;;;;;;;6.81;2.19;;;;;;;18.81;54.72;101881.84;;;;-56
2021/11/18 11:51:53;;;;;;;3.31;2.27;;;;;;;18.83;54.60;101886.80;;;;-57
2021/11/18 11:55:53;;;;;;;2.39;1.98;;;;;;;18.85;54.57;101891.01;;;;-52
2021/11/18 11:58:53;;;;;;;3.03;2.18;;;;;;;18.88;54.55;101885.64;;;;-52
2021/11/18 12:01:53;;;;;;;3.89;2.07;;;;;;;18.91;54.51;101885.82;;;;-51
2021/11/18 12:04:53;;;;;;;2.48;2.00;;;;;;;18.94;54.48;101883.79;;;;-57
2021/11/18 12:07:53;;;;;;;4.83;2.04;;;;;;;18.95;54.48;101875.40;;;;-56
2021/11/18 12:10:53;;;;;;;2.61;2.05;;;;;;;18.98;54.46;101873.61;;;;-56
2021/11/18 12:13:53;;;;;;;3.25;2.02;;;;;;;19.02;54.51;101873.89;;;;-56
2021/11/18 12:16:53;;;;;;;1.93;1.83;;;;;;;19.03;54.48;101868.34;;;;-55
2021/11/18 12:19:55;;;;;;;2.67;1.93;;;;;;;19.05;54.48;101862.31;;;;-56
2021/11/18 12:22:53;;;;;;;3.28;1.85;;;;;;;19.07;54.46;101855.55;;;;-57
2021/11/18 12:25:53;;;;;;;2.78;2.15;;;;;;;19.10;54.38;101850.41;;;;-57
2021/11/18 12:28:53;;;;;;;2.21;1.75;;;;;;;19.12;54.43;101849.42;;;;-56
2021/11/18 12:31:53;;;;;;;2.11;1.89;;;;;;;19.13;54.41;101840.50;;;;-55
2021/11/18 12:34:53;;;;;;;2.49;2.00;;;;;;;19.15;54.43;101839.90;;;;-57
2021/11/18 12:37:53;;;;;;;2.21;1.88;;;;;;;19.17;54.35;101841.42;;;;-57
2021/11/18 12:40:53;;;;;;;2.04;1.84;;;;;;;19.19;54.36;101840.02;;;;-57
2021/11/18 12:43:53;;;;;;;3.00;1.80;;;;;;;19.19;54.36;101837.92;;;;-57
2021/11/18 12:46:53;;;;;;;2.17;1.73;;;;;;;19.21;54.35;101842.37;;;;-56
2021/11/18 12:49:55;;;;;;;2.11;1.85;;;;;;;19.23;54.35;101844.28;;;;-56
2021/11/18 12:52:53;;;;;;;2.69;2.00;;;;;;;19.24;54.29;101844.02;;;;-56
2021/11/18 12:55:53;;;;;;;1.84;1.72;;;;;;;19.25;54.31;101846.46;;;;-56
2021/11/18 12:58:53;;;;;;;2.43;1.83;;;;;;;19.26;54.30;101845.45;;;;-57
2021/11/18 13:01:53;;;;;;;2.27;1.90;;;;;;;19.27;54.29;101839.53;;;;-56
2021/11/18 13:04:53;;;;;;;1.91;1.75;;;;;;;19.29;54.28;101834.96;;;;-53
2021/11/18 13:07:53;;;;;;;2.15;1.91;;;;;;;19.29;54.28;101830.58;;;;-51
2021/11/18 13:10:55;;;;;;;3.20;1.90;;;;;;;19.31;54.26;101823.31;;;;-53
2021/11/18 13:13:53;;;;;;;2.53;1.83;;;;;;;19.32;54.25;101824.66;;;;-52
2021/11/18 13:16:53;;;;;;;2.07;1.87;;;;;;;19.33;54.26;101824.44;;;;-51
2021/11/18 13:19:53;;;;;;;2.37;1.90;;;;;;;19.35;54.26;101822.77;;;;-52
2021/11/18 13:23:53;;;;;;;3.85;2.05;;;;;;;19.36;54.24;101823.85;;;;-52
2021/11/18 13:26:53;;;;;;;2.09;1.89;;;;;;;19.38;54.40;101823.46;;;;-53
2021/11/18 13:29:54;;;;;;;2.78;1.92;;;;;;;19.41;54.60;101817.52;;;;-50
2021/11/18 13:32:53;;;;;;;2.39;1.92;;;;;;;19.44;54.81;101800.83;;;;-51
2021/11/18 13:36:07;;;;;;;2.61;2.01;;;;;;;19.46;54.88;101794.66;;;;-50
2021/11/18 13:38:53;;;;;;;3.45;1.91;;;;;;;19.50;54.88;101790.91;;;;-45
2021/11/18 13:41:53;;;;;;;3.29;1.81;;;;;;;19.55;54.97;101792.21;;;;-51
2021/11/18 13:44:54;;;;;;;4.27;2.02;;;;;;;19.55;54.66;101793.19;;;;-55
2021/11/18 13:47:53;;;;;;;7.25;2.39;;;;;;;19.54;54.57;101785.98;;;;-51
2021/11/18 13:50:53;;;;;;;4.89;2.75;;;;;;;19.52;53.89;101782.77;;;;-56
2021/11/18 13:53:54;;;;;;;8.51;2.55;;;;;;;19.54;54.18;101779.33;;;;-56
2021/11/18 13:56:53;;;;;;;5.28;2.46;;;;;;;19.56;54.39;101773.93;;;;-54
2021/11/18 13:59:53;;;;;;;4.10;2.39;;;;;;;19.58;54.39;101764.30;;;;-54
2021/11/18 14:02:54;;;;;;;5.57;2.25;;;;;;;19.61;54.46;101764.41;;;;-53
2021/11/18 14:05:53;;;;;;;3.79;2.23;;;;;;;19.65;54.68;101763.01;;;;-51
2021/11/18 14:08:53;;;;;;;2.97;2.30;;;;;;;19.66;54.56;101769.16;;;;-55
2021/11/18 14:11:53;;;;;;;3.69;2.33;;;;;;;19.68;54.36;101775.47;;;;-57
2021/11/18 14:14:53;;;;;;;4.57;2.34;;;;;;;19.70;54.48;101780.66;;;;-55
2021/11/18 14:17:53;;;;;;;2.87;2.19;;;;;;;19.72;54.21;101777.31;;;;-51
2021/11/18 14:20:53;;;;;;;19.46;2.64;;;;;;;19.74;54.09;101776.56;;;;-52
2021/11/18 14:23:53;;;;;;;3.95;2.50;;;;;;;19.75;54.33;101778.28;;;;-52
2021/11/18 14:26:53;;;;;;;4.96;2.39;;;;;;;19.78;54.34;101785.70;;;;-53
2021/11/18 14:29:53;;;;;;;5.72;2.30;;;;;;;19.78;54.13;101788.30;;;;-53
2021/11/18 14:32:53;;;;;;;4.67;2.66;;;;;;;19.78;54.14;101794.33;;;;-53
2021/11/18 14:35:54;;;;;;;2.96;2.29;;;;;;;19.78;54.18;101790.34;;;;-53
2021/11/18 14:38:53;;;;;;;4.93;2.41;;;;;;;19.78;54.10;101791.31;;;;-54
2021/11/18 14:41:53;;;;;;;2.79;2.33;;;;;;;19.79;54.04;101795.80;;;;-53
2021/11/18 14:44:53;;;;;;;4.19;2.14;;;;;;;19.78;54.10;101797.33;;;;-53
2021/11/18 14:47:53;;;;;;;4.45;2.37;;;;;;;19.79;54.09;101799.30;;;;-53
2021/11/18 14:50:53;;;;;;;3.82;2.30;;;;;;;19.79;54.06;101799.70;;;;-53
2021/11/18 14:53:53;;;;;;;2.73;2.11;;;;;;;19.79;54.06;101803.94;;;;-53
2021/11/18 14:56:53;;;;;;;4.30;2.07;;;;;;;19.79;54.06;101811.66;;;;-54
2021/11/18 14:59:53;;;;;;;2.64;2.11;;;;;;;19.79;54.04;101820.36;;;;-54
2021/11/18 15:02:53;;;;;;;3.08;2.10;;;;;;;19.80;54.09;101814.30;;;;-53
2021/11/18 15:05:53;;;;;;;2.68;2.08;;;;;;;19.80;54.02;101817.56;;;;-54
2021/11/18 15:08:53;;;;;;;2.89;2.10;;;;;;;19.81;54.03;101813.83;;;;-54
2021/11/18 15:11:53;;;;;;;2.56;1.97;;;;;;;19.81;54.07;101813.51;;;;-54
2021/11/18 15:14:53;;;;;;;4.43;2.30;;;;;;;19.81;54.01;101812.03;;;;-53
2021/11/18 15:17:54;;;;;;;2.66;2.12;;;;;;;19.82;54.01;101814.89;;;;-53
2021/11/18 15:20:54;;;;;;;2.50;2.09;;;;;;;19.82;53.96;101803.83;;;;-53
2021/11/18 15:23:53;;;;;;;2.62;2.08;;;;;;;19.82;54.01;101804.27;;;;-53
2021/11/18 15:26:53;;;;;;;2.71;2.13;;;;;;;19.82;53.99;101804.03;;;;-54
2021/11/18 15:29:53;;;;;;;2.30;2.08;;;;;;;19.83;53.96;101806.56;;;;-56
2021/11/18 15:32:53;;;;;;;3.55;2.12;;;;;;;19.82;53.96;101808.67;;;;-57
2021/11/18 15:35:53;;;;;;;2.73;2.09;;;;;;;19.85;54.06;101813.20;;;;-60
2021/11/18 15:38:53;;;;;;;2.47;2.08;;;;;;;19.87;54.13;101815.54;;;;-61
2021/11/18 15:41:53;;;;;;;2.52;1.97;;;;;;;19.90;54.16;101817.55;;;;-55
2021/11/18 15:44:53;;;;;;;2.54;2.17;;;;;;;19.93;54.34;101814.55;;;;-60
2021/11/18 15:47:53;;;;;;;2.99;2.07;;;;;;;19.96;54.43;101817.95;;;;-53
2021/11/18 15:50:53;;;;;;;4.07;2.11;;;;;;;19.96;54.42;101825.61;;;;-57
2021/11/18 15:53:53;;;;;;;4.03;2.15;;;;;;;20.00;54.42;101832.88;;;;-54
2021/11/18 15:56:53;;;;;;;3.21;2.12;;;;;;;20.01;54.41;101836.66;;;;-54
2021/11/18 15:59:53;;;;;;;2.37;2.10;;;;;;;20.02;54.29;101839.19;;;;-57
2021/11/18 16:02:53;;;;;;;4.66;2.28;;;;;;;20.01;53.91;101843.58;;;;-51
2021/11/18 16:05:53;;;;;;;3.61;2.35;;;;;;;20.05;54.28;101848.56;;;;-51
2021/11/18 16:08:53;;;;;;;3.34;2.43;;;;;;;20.05;54.29;101845.55;;;;-51
2021/11/18 16:11:53;;;;;;;2.71;2.23;;;;;;;20.07;54.26;101857.56;;;;-57
2021/11/18 16:14:53;;;;;;;3.21;2.09;;;;;;;20.08;54.46;101856.84;;;;-55
2021/11/18 16:17:53;;;;;;;5.05;2.31;;;;;;;20.09;54.48;101859.17;;;;-59
2021/11/18 16:20:53;;;;;;;2.56;2.20;;;;;;;20.12;54.39;101865.09;;;;-54
2021/11/18 16:23:53;;;;;;;4.00;2.11;;;;;;;20.13;54.36;101859.16;;;;-52
2021/11/18 16:26:53;;;;;;;4.15;2.37;;;;;;;20.15;54.30;101862.19;;;;-50
2021/11/18 16:29:53;;;;;;;4.51;2.30;;;;;;;20.18;54.35;101862.48;;;;-51
2021/11/18 16:32:53;;;;;;;2.24;2.04;;;;;;;20.20;54.48;101862.05;;;;-57
2021/11/18 16:35:53;;;;;;;2.46;2.19;;;;;;;20.22;54.33;101856.73;;;;-55
2021/11/18 16:38:53;;;;;;;2.39;2.10;;;;;;;20.23;54.41;101855.47;;;;-56
2021/11/18 16:41:53;;;;;;;3.89;2.35;;;;;;;20.23;53.85;101850.42;;;;-58
2021/11/18 16:44:52;;;;;;;3.17;2.43;;;;;;;20.23;53.82;101853.81;;;;-58
2021/11/18 16:47:53;;;;;;;4.07;2.72;;;;;;;20.19;53.41;101850.48;;;;-56